Terminal Aerodrome Forecast
Issued by NWS

Home | Current Version | Previous Version | Text Only | Print | Product List | Glossary On
Versions: 1 2 3 4 5 6 7 8 9 10 11 12
000
FTUS42 KTBW 282341
TAFRSW
TAF
KRSW 282341Z 2900/2924 VRB03KT P6SM FEW050 SCT100
     FM291400 VRB03KT P6SM SCT020 SCT250
     FM291600 VRB05KT P6SM VCTS BKN035CB
     FM291900 28007KT P6SM VCTS BKN050CB=

USA.gov is the U.S. government's official web portal to all federal, state and local government web resources and services.